Iceberg — UBRG — position and weather

sailwx.info

Track history (hours):
 
Tides and Currents Weather Stations Pressure Air Temp Water Temp Dewpoint Dewpoint Depression Visibility Wind Speed Wind Dir Waves Ship Positions

Iceberg

Last reported at 2018-Feb-20 19:30 UTC. Time now 2018-Jun-19 12:28 UTC.
Position N 23°54' E 122°21'.
Warning: this ship's position is months out of date.

Length 154 m; draft 7.2 m.

Type: Cargo ship. MMSI: 273817020.

Date/timePositionNaut miles runAvg speedWind from/ knotsBaromVisibWave heightAir tempDewpointWater temp
2018-Feb-20 19:30N 23°54' E 122°21'612.2
2018-Feb-20 19:00N 23°60' E 122°21'611.5
2018-Feb-20 18:30N 24°05' E 122°23'611.1
2018-Feb-20 18:00N 24°11' E 122°24'510.5
2018-Feb-20 17:30N 24°16' E 122°25'510.3
2018-Feb-20 17:00N 24°21' E 122°26'510.0
2018-Feb-20 16:30N 24°26' E 122°26'510.2
2018-Feb-20 15:59N 24°31' E 122°27'510.4
2018-Feb-20 15:30N 24°36' E 122°28'510.1
2018-Feb-20 15:00N 24°41' E 122°30'510.5
2018-Feb-20 14:29N 24°46' E 122°33'510.6
2018-Feb-20 14:00N 24°51' E 122°35'510.2
2018-Feb-20 13:30N 24°55' E 122°37'510.1
2018-Feb-20 13:00N 25°00' E 122°38'  
Track history (hours):
 
Tides and Currents Weather Stations Pressure Air Temp Water Temp Dewpoint Dewpoint Depression Visibility Wind Speed Wind Dir Waves Ship Positions

Iceberg

Last reported at 2018-Feb-20 19:30 UTC. Time now 2018-Jun-19 12:28 UTC.
Position N 23°54' E 122°21'.
Warning: this ship's position is months out of date.

Length 154 m; draft 7.2 m.

Type: Cargo ship. MMSI: 273817020.

Date/timePositionNaut miles runAvg speedWind from/ knotsBaromVisibWave heightAir tempDewpointWater temp
2018-Feb-20 19:30N 23°54' E 122°21'612.2
2018-Feb-20 19:00N 23°60' E 122°21'611.5
2018-Feb-20 18:30N 24°05' E 122°23'611.1
2018-Feb-20 18:00N 24°11' E 122°24'510.5
2018-Feb-20 17:30N 24°16' E 122°25'510.3
2018-Feb-20 17:00N 24°21' E 122°26'510.0
2018-Feb-20 16:30N 24°26' E 122°26'510.2
2018-Feb-20 15:59N 24°31' E 122°27'510.4
2018-Feb-20 15:30N 24°36' E 122°28'510.1
2018-Feb-20 15:00N 24°41' E 122°30'510.5
2018-Feb-20 14:29N 24°46' E 122°33'510.6
2018-Feb-20 14:00N 24°51' E 122°35'510.2
2018-Feb-20 13:30N 24°55' E 122°37'510.1
2018-Feb-20 13:00N 25°00' E 122°38'  

Dump ship's entire track history